createdAt,value
2022-08-16T00:00:04.260Z,98243.42
2022-08-16T00:02:54.552Z,98242.50
2022-08-16T00:05:25.341Z,98240.86
2022-08-16T00:07:56.976Z,98243.11
2022-08-16T00:10:33.198Z,98241.23
2022-08-16T00:13:02.656Z,98245.89
2022-08-16T00:15:51.826Z,98251.65
2022-08-16T00:18:29.716Z,98250.02
2022-08-16T00:20:59.110Z,98244.98
2022-08-16T00:23:34.534Z,98245.08
2022-08-16T00:26:33.341Z,98248.78
2022-08-16T00:28:58.088Z,98249.65
2022-08-16T00:31:27.239Z,98248.54
2022-08-16T00:34:18.040Z,98248.20
2022-08-16T00:36:48.678Z,98248.05
2022-08-16T00:39:23.829Z,98248.17
2022-08-16T00:41:52.833Z,98246.77
2022-08-16T00:44:22.612Z,98252.45
2022-08-16T00:47:06.790Z,98253.68
2022-08-16T00:49:39.430Z,98257.08
2022-08-16T00:52:30.259Z,98264.59
2022-08-16T00:55:00.463Z,98267.36
2022-08-16T00:57:44.529Z,98268.45
2022-08-16T01:00:20.210Z,98278.49
2022-08-16T01:02:57.570Z,98277.88
2022-08-16T01:05:25.838Z,98278.10
2022-08-16T01:07:55.203Z,98281.54
2022-08-16T01:10:32.781Z,98285.48
2022-08-16T01:13:12.437Z,98284.34
2022-08-16T01:15:52.565Z,98287.27
2022-08-16T01:18:40.099Z,98292.58
2022-08-16T01:21:33.686Z,98293.96
2022-08-16T01:24:52.574Z,98293.15
2022-08-16T01:27:20.638Z,98283.02
2022-08-16T01:29:58.181Z,98284.02
2022-08-16T01:32:33.647Z,98281.50
2022-08-16T01:35:17.754Z,98276.77
2022-08-16T01:37:53.028Z,98275.09
2022-08-16T01:40:29.369Z,98276.36
2022-08-16T01:42:58.038Z,98279.27
2022-08-16T01:45:40.548Z,98275.15
2022-08-16T01:48:19.800Z,98273.95
2022-08-16T01:51:08.185Z,98270.63
2022-08-16T01:53:41.308Z,98275.61
2022-08-16T01:56:27.379Z,98275.94
2022-08-16T01:59:03.980Z,98277.86
2022-08-16T02:01:34.430Z,98285.19
2022-08-16T02:04:11.094Z,98289.63
2022-08-16T02:06:46.673Z,98293.63
2022-08-16T02:09:23.973Z,98291.98
2022-08-16T02:12:49.904Z,98290.99
2022-08-16T02:14:53.316Z,98294.65
2022-08-16T02:17:21.674Z,98291.02
2022-08-16T02:19:59.530Z,98290.69
2022-08-16T02:22:34.160Z,98291.77
2022-08-16T02:25:16.190Z,98287.57
2022-08-16T02:27:47.996Z,98284.98
2022-08-16T02:30:36.719Z,98282.73
2022-08-16T02:33:12.317Z,98282.08
2022-08-16T02:35:53.655Z,98281.96
2022-08-16T02:38:24.093Z,98276.54
2022-08-16T02:40:57.132Z,98277.13
2022-08-16T02:43:30.102Z,98277.08
2022-08-16T02:46:07.627Z,98280.77
2022-08-16T02:48:39.241Z,98279.66
2022-08-16T02:51:15.996Z,98283.34
2022-08-16T02:53:48.487Z,98284.50
2022-08-16T02:56:18.500Z,98281.42
2022-08-16T02:58:50.212Z,98283.54
2022-08-16T03:01:25.085Z,98291.86
2022-08-16T03:04:39.449Z,98292.30
2022-08-16T03:06:59.328Z,98295.59
2022-08-16T03:10:00.525Z,98300.06
2022-08-16T03:12:36.794Z,98303.32
2022-08-16T03:15:11.210Z,98307.59
2022-08-16T03:17:53.148Z,98307.27
2022-08-16T03:20:21.505Z,98307.95
2022-08-16T03:23:05.863Z,98305.15
2022-08-16T03:25:43.988Z,98299.77
2022-08-16T03:28:13.338Z,98304.10
2022-08-16T03:30:45.188Z,98305.13
2022-08-16T03:33:16.916Z,98302.26
2022-08-16T03:35:59.530Z,98303.55
2022-08-16T03:38:48.344Z,98305.10
2022-08-16T03:41:25.733Z,98303.45
2022-08-16T03:43:59.814Z,98301.57
2022-08-16T03:46:47.570Z,98308.31
2022-08-16T03:49:22.540Z,98306.33
2022-08-16T03:51:54.606Z,98304.14
2022-08-16T03:54:25.387Z,98307.62
2022-08-16T03:56:58.679Z,98307.88
2022-08-16T03:59:31.142Z,98314.21
2022-08-16T04:02:10.536Z,98324.45
2022-08-16T04:04:51.514Z,98331.17
2022-08-16T04:07:20.042Z,98333.44
2022-08-16T04:09:48.500Z,98335.66
2022-08-16T04:12:53.415Z,98337.38
2022-08-16T04:15:07.229Z,98339.14
2022-08-16T04:17:39.538Z,98341.61
2022-08-16T04:20:23.591Z,98344.09
2022-08-16T04:22:57.813Z,98348.48
2022-08-16T04:25:28.130Z,98349.38
2022-08-16T04:27:57.217Z,98354.63
2022-08-16T04:30:47.828Z,98355.20
2022-08-16T04:33:27.490Z,98352.96
2022-08-16T04:35:58.629Z,98355.48
2022-08-16T04:38:30.749Z,98360.31
2022-08-16T04:41:01.991Z,98362.20
2022-08-16T04:43:33.677Z,98362.64
2022-08-16T04:46:03.159Z,98369.98
2022-08-16T04:48:35.736Z,98367.77
2022-08-16T04:51:12.627Z,98360.90
2022-08-16T04:53:49.893Z,98363.03
2022-08-16T04:56:20.882Z,98361.69
2022-08-16T04:58:57.544Z,98360.56
2022-08-16T05:01:55.970Z,98360.47
2022-08-16T05:04:19.508Z,98360.19
2022-08-16T05:06:49.336Z,98367.27
2022-08-16T05:09:23.492Z,98363.23
2022-08-16T05:11:57.175Z,98369.16
2022-08-16T05:14:45.380Z,98367.50
2022-08-16T05:17:20.279Z,98366.00
2022-08-16T05:19:57.338Z,98368.42
2022-08-16T05:22:31.282Z,98372.13
2022-08-16T05:25:08.892Z,98378.36
2022-08-16T05:27:43.093Z,98381.83
2022-08-16T05:30:34.468Z,98389.98
2022-08-16T05:33:03.184Z,98399.55
2022-08-16T05:35:32.755Z,98403.51
2022-08-16T05:38:33.498Z,98410.02
2022-08-16T05:41:00.348Z,98413.90
2022-08-16T05:43:43.366Z,98413.25
2022-08-16T05:46:29.715Z,98411.67
2022-08-16T05:49:06.056Z,98414.48
2022-08-16T05:51:39.933Z,98417.98
2022-08-16T05:54:11.605Z,98420.34
2022-08-16T05:56:48.992Z,98423.77
2022-08-16T05:59:19.330Z,98424.21
2022-08-16T06:01:50.694Z,98424.30
2022-08-16T06:04:36.714Z,98429.77
2022-08-16T06:07:24.748Z,98425.45
2022-08-16T06:10:01.957Z,98430.34
2022-08-16T06:12:31.893Z,98436.88
2022-08-16T06:15:14.891Z,98436.74
2022-08-16T06:17:45.287Z,98436.92
2022-08-16T06:20:23.749Z,98438.70
2022-08-16T06:22:57.650Z,98441.63
2022-08-16T06:25:39.623Z,98442.52
2022-08-16T06:28:16.842Z,98446.82
2022-08-16T06:31:01.302Z,98446.30
2022-08-16T06:33:41.410Z,98449.80
2022-08-16T06:36:14.135Z,98453.40
2022-08-16T06:38:55.878Z,98460.46
2022-08-16T06:41:29.495Z,98464.19
2022-08-16T06:44:20.756Z,98464.48
2022-08-16T06:46:51.241Z,98460.83
2022-08-16T06:49:19.749Z,98463.79
2022-08-16T06:51:48.951Z,98460.81
2022-08-16T06:54:21.832Z,98461.40
2022-08-16T06:56:52.335Z,98459.09
2022-08-16T06:59:25.601Z,98459.60
2022-08-16T07:01:59.859Z,98463.00
2022-08-16T07:04:32.427Z,98463.27
2022-08-16T07:07:09.490Z,98464.55
2022-08-16T07:09:38.657Z,98463.63
2022-08-16T07:12:10.700Z,98467.27
2022-08-16T07:14:42.273Z,98464.76
2022-08-16T07:17:13.802Z,98464.58
2022-08-16T07:20:30.106Z,98463.08
2022-08-16T07:23:17.397Z,98465.74
2022-08-16T07:25:57.700Z,98468.16
2022-08-16T07:28:37.825Z,98470.63
2022-08-16T07:31:13.004Z,98470.71
2022-08-16T07:33:54.932Z,98475.94
2022-08-16T07:37:02.996Z,98477.60
2022-08-16T07:39:44.877Z,98476.92
2022-08-16T07:42:28.649Z,98478.55
2022-08-16T07:45:16.997Z,98476.71
2022-08-16T07:47:58.256Z,98476.38
2022-08-16T07:50:56.076Z,98477.62
2022-08-16T07:53:34.027Z,98478.65
2022-08-16T07:56:11.519Z,98482.07
2022-08-16T07:58:43.314Z,98480.41
2022-08-16T08:01:19.454Z,98482.16
2022-08-16T08:03:57.491Z,98486.16
2022-08-16T08:06:36.186Z,98488.39
2022-08-16T08:09:16.176Z,98490.15
2022-08-16T08:12:00.620Z,98488.95
2022-08-16T08:14:35.714Z,98488.33
2022-08-16T08:17:09.203Z,98497.81
2022-08-16T08:19:44.645Z,98493.23
2022-08-16T08:22:22.569Z,98502.52
2022-08-16T08:24:59.675Z,98503.91
2022-08-16T08:27:38.999Z,98506.36
2022-08-16T08:30:49.813Z,98509.48
2022-08-16T08:33:02.580Z,98508.54
2022-08-16T08:35:36.475Z,98510.39
2022-08-16T08:38:09.051Z,98513.61
2022-08-16T08:40:49.325Z,98514.88
2022-08-16T08:43:20.581Z,98509.39
2022-08-16T08:45:58.665Z,98511.55
2022-08-16T08:48:35.131Z,98502.98
2022-08-16T08:51:11.135Z,98506.35
2022-08-16T08:54:09.068Z,98509.74
2022-08-16T08:56:45.862Z,98513.80
2022-08-16T08:59:40.772Z,98511.08
2022-08-16T09:02:19.520Z,98511.93
2022-08-16T09:04:55.638Z,98508.84
2022-08-16T09:07:29.047Z,98510.93
2022-08-16T09:10:25.604Z,98512.27
2022-08-16T09:12:58.927Z,98511.30
2022-08-16T09:15:39.948Z,98510.19
2022-08-16T09:18:25.143Z,98507.34
2022-08-16T09:20:59.095Z,98509.67
2022-08-16T09:23:36.216Z,98514.38
2022-08-16T09:26:44.292Z,98516.17
2022-08-16T09:29:16.472Z,98520.59
2022-08-16T09:31:53.375Z,98522.05
2022-08-16T09:34:21.955Z,98522.83
2022-08-16T09:36:58.223Z,98519.48
2022-08-16T09:39:41.532Z,98515.04
2022-08-16T09:42:16.356Z,98511.08
2022-08-16T09:45:12.114Z,98510.35
2022-08-16T09:47:56.489Z,98510.69
2022-08-16T09:50:36.683Z,98507.25
2022-08-16T09:53:16.412Z,98506.91
2022-08-16T09:55:52.613Z,98508.07
2022-08-16T09:58:41.462Z,98512.34
2022-08-16T10:01:20.497Z,98514.38
2022-08-16T10:04:02.529Z,98517.10
2022-08-16T10:06:35.631Z,98518.77
2022-08-16T10:09:45.180Z,98519.05
2022-08-16T10:12:42.634Z,98513.05
2022-08-16T10:15:17.000Z,98514.48
2022-08-16T10:18:00.621Z,98515.52
2022-08-16T10:20:34.091Z,98520.34
2022-08-16T10:23:06.745Z,98522.30
2022-08-16T10:27:18.203Z,98518.42
2022-08-16T10:28:39.384Z,98521.05
2022-08-16T10:31:11.923Z,98518.00
2022-08-16T10:33:45.357Z,98518.70
2022-08-16T10:36:38.902Z,98518.03
2022-08-16T10:39:08.555Z,98513.64
2022-08-16T10:41:36.636Z,98514.64
2022-08-16T10:44:09.891Z,98515.45
2022-08-16T10:46:42.024Z,98508.55
2022-08-16T10:49:16.834Z,98510.86
2022-08-16T10:52:03.290Z,98515.88
2022-08-16T10:54:58.579Z,98515.92
2022-08-16T10:57:24.619Z,98514.41
2022-08-16T10:59:57.881Z,98515.92
2022-08-16T11:02:59.932Z,98512.36
2022-08-16T11:05:17.853Z,98513.53
2022-08-16T11:07:52.091Z,98510.72
2022-08-16T11:13:57.326Z,98520.55
2022-08-16T11:17:01.967Z,98513.73
2022-08-16T11:19:12.302Z,98517.24
2022-08-16T11:24:40.039Z,98516.50
2022-08-16T11:27:19.431Z,98516.92
2022-08-16T11:29:52.193Z,98513.52
2022-08-16T11:32:31.594Z,98510.46
2022-08-16T11:35:11.285Z,98513.63
2022-08-16T11:38:47.946Z,98510.14
2022-08-16T11:40:58.141Z,98508.91
2022-08-16T11:43:31.364Z,98513.17
2022-08-16T11:46:44.754Z,98515.57
2022-08-16T11:49:02.866Z,98513.40
2022-08-16T11:51:30.813Z,98518.72
2022-08-16T11:54:02.120Z,98513.10
2022-08-16T11:56:51.529Z,98513.73
2022-08-16T11:59:30.172Z,98517.48
2022-08-16T12:02:04.379Z,98513.85
2022-08-16T12:04:51.950Z,98510.31
2022-08-16T12:07:23.512Z,98507.83
2022-08-16T12:09:55.714Z,98510.55
2022-08-16T12:12:29.929Z,98505.23
2022-08-16T12:15:01.326Z,98505.15
2022-08-16T12:17:32.223Z,98503.05
2022-08-16T12:20:01.369Z,98499.95
2022-08-16T12:22:36.535Z,98497.15
2022-08-16T12:25:07.180Z,98495.48
2022-08-16T12:27:39.374Z,98496.84
2022-08-16T12:30:19.854Z,98497.27
2022-08-16T12:33:25.509Z,98493.05
2022-08-16T12:35:55.724Z,98490.30
2022-08-16T12:38:41.072Z,98495.70
2022-08-16T12:41:24.373Z,98494.23
2022-08-16T12:43:57.223Z,98492.13
2022-08-16T12:46:31.048Z,98487.48
2022-08-16T12:49:03.595Z,98483.13
2022-08-16T12:51:58.617Z,98487.15
2022-08-16T12:54:27.651Z,98482.92
2022-08-16T12:56:56.401Z,98473.92
2022-08-16T12:59:24.189Z,98477.27
2022-08-16T13:01:57.986Z,98471.05
2022-08-16T13:04:33.335Z,98470.37
2022-08-16T13:07:04.813Z,98467.17
2022-08-16T13:09:52.475Z,98466.27
2022-08-16T13:12:28.571Z,98465.05
2022-08-16T13:14:57.944Z,98467.28
2022-08-16T13:17:32.048Z,98460.60
2022-08-16T13:20:07.611Z,98461.98
2022-08-16T13:22:47.856Z,98456.52
2022-08-16T13:25:23.896Z,98457.64
2022-08-16T13:28:03.207Z,98452.77
2022-08-16T13:30:41.678Z,98452.80
2022-08-16T13:33:17.524Z,98449.02
2022-08-16T13:35:56.011Z,98448.96
2022-08-16T13:38:31.407Z,98450.58
2022-08-16T13:41:09.844Z,98450.73
2022-08-16T13:43:40.534Z,98454.41
2022-08-16T13:46:16.101Z,98448.58
2022-08-16T13:48:45.125Z,98446.01
2022-08-16T13:54:07.101Z,98446.72
2022-08-16T13:56:38.995Z,98446.27
2022-08-16T13:59:34.503Z,98447.23
2022-08-16T14:02:08.749Z,98446.67
2022-08-16T14:04:46.757Z,98451.01
2022-08-16T14:07:40.564Z,98449.50
2022-08-16T14:10:13.012Z,98447.13
2022-08-16T14:12:43.725Z,98447.23
2022-08-16T14:15:16.274Z,98443.89
2022-08-16T14:18:15.290Z,98440.23
2022-08-16T14:20:32.797Z,98442.13
2022-08-16T14:23:01.398Z,98439.21
2022-08-16T14:25:29.197Z,98443.54
2022-08-16T14:27:57.235Z,98446.79
2022-08-16T14:30:26.067Z,98442.01
2022-08-16T14:32:54.566Z,98443.60
2022-08-16T14:35:49.093Z,98441.42
2022-08-16T14:38:23.547Z,98444.94
2022-08-16T14:40:54.849Z,98448.54
2022-08-16T14:43:29.807Z,98444.70
2022-08-16T14:46:00.088Z,98442.73
2022-08-16T14:48:29.770Z,98443.48
2022-08-16T14:50:58.739Z,98437.37
2022-08-16T14:53:27.600Z,98437.29
2022-08-16T14:55:55.848Z,98439.80
2022-08-16T14:58:35.064Z,98439.47
2022-08-16T15:01:10.163Z,98440.59
2022-08-16T15:03:44.473Z,98434.91
2022-08-16T15:06:16.453Z,98435.61
2022-08-16T15:08:45.214Z,98433.02
2022-08-16T15:11:14.398Z,98441.45
2022-08-16T15:13:42.390Z,98442.25
2022-08-16T15:16:11.037Z,98439.73
2022-08-16T15:18:39.397Z,98441.09
2022-08-16T15:21:08.531Z,98444.02
2022-08-16T15:23:36.995Z,98439.65
2022-08-16T15:26:22.264Z,98439.73
2022-08-16T15:29:02.501Z,98436.94
2022-08-16T15:31:32.896Z,98436.00
2022-08-16T15:34:05.414Z,98436.58
2022-08-16T15:36:34.291Z,98434.80
2022-08-16T15:39:30.431Z,98438.84
2022-08-16T15:42:02.890Z,98435.90
2022-08-16T15:44:44.604Z,98435.90
2022-08-16T15:47:21.776Z,98441.61
2022-08-16T15:49:56.306Z,98441.75
2022-08-16T15:52:33.933Z,98442.17
2022-08-16T15:55:23.475Z,98446.22
2022-08-16T15:57:52.493Z,98446.70
2022-08-16T16:00:20.927Z,98444.32
2022-08-16T16:03:01.238Z,98448.30
2022-08-16T16:05:29.990Z,98447.17
2022-08-16T16:08:09.937Z,98450.30
2022-08-16T16:10:41.630Z,98445.66
2022-08-16T16:13:10.211Z,98445.31
2022-08-16T16:15:47.331Z,98441.80
2022-08-16T16:18:18.149Z,98438.72
2022-08-16T16:20:50.186Z,98440.91
2022-08-16T16:23:24.757Z,98443.41
2022-08-16T16:25:54.966Z,98446.27
2022-08-16T16:28:46.096Z,98451.13
2022-08-16T16:31:18.811Z,98448.33
2022-08-16T16:33:56.190Z,98450.73
2022-08-16T16:36:29.446Z,98449.23
2022-08-16T16:38:58.679Z,98446.38
2022-08-16T16:41:30.408Z,98448.96
2022-08-16T16:44:01.803Z,98450.98
2022-08-16T16:46:42.320Z,98454.64
2022-08-16T16:49:13.905Z,98455.51
2022-08-16T16:51:44.946Z,98455.21
2022-08-16T16:54:22.277Z,98454.11
2022-08-16T16:56:58.526Z,98456.79
2022-08-16T16:59:29.240Z,98455.91
2022-08-16T17:02:38.550Z,98457.89
2022-08-16T17:04:48.850Z,98461.42
2022-08-16T17:07:24.113Z,98463.63
2022-08-16T17:09:53.502Z,98461.52
2022-08-16T17:12:24.657Z,98463.34
2022-08-16T17:14:54.144Z,98465.15
2022-08-16T17:17:22.451Z,98466.58
2022-08-16T17:19:51.363Z,98466.63
2022-08-16T17:22:22.933Z,98467.32
2022-08-16T17:24:54.133Z,98466.98
2022-08-16T17:27:33.421Z,98467.25
2022-08-16T17:30:15.124Z,98472.32
2022-08-16T17:32:50.787Z,98471.56
2022-08-16T17:35:33.627Z,98478.56
2022-08-16T17:38:13.128Z,98479.41
2022-08-16T17:41:09.719Z,98478.95
2022-08-16T17:43:44.280Z,98485.14
2022-08-16T17:46:41.398Z,98483.97
2022-08-16T17:49:05.201Z,98487.52
2022-08-16T17:51:34.452Z,98489.34
2022-08-16T17:54:03.745Z,98490.05
2022-08-16T17:56:31.962Z,98489.05
2022-08-16T17:59:00.323Z,98491.34
2022-08-16T18:01:28.610Z,98495.92
2022-08-16T18:04:07.557Z,98498.46
2022-08-16T18:06:41.119Z,98493.88
2022-08-16T18:09:10.468Z,98495.09
2022-08-16T18:11:44.590Z,98499.05
2022-08-16T18:14:15.933Z,98503.01
2022-08-16T18:16:45.747Z,98511.71
2022-08-16T18:19:15.190Z,98516.48
2022-08-16T18:22:02.518Z,98517.27
2022-08-16T18:24:31.441Z,98524.38
2022-08-16T18:27:05.273Z,98526.88
2022-08-16T18:29:52.082Z,98532.15
2022-08-16T18:32:22.095Z,98528.94
2022-08-16T18:34:56.697Z,98530.71
2022-08-16T18:37:24.672Z,98531.38
2022-08-16T18:39:59.838Z,98532.79
2022-08-16T18:42:28.778Z,98532.62
2022-08-16T18:44:56.991Z,98532.94
2022-08-16T18:47:25.744Z,98531.21
2022-08-16T18:49:56.800Z,98531.89
2022-08-16T18:52:28.189Z,98534.27
2022-08-16T18:55:02.248Z,98532.77
2022-08-16T18:57:59.903Z,98536.82
2022-08-16T19:00:31.878Z,98537.67
2022-08-16T19:03:23.557Z,98537.26
2022-08-16T19:06:03.296Z,98537.67
2022-08-16T19:08:34.933Z,98540.13
2022-08-16T19:11:05.637Z,98542.50
2022-08-16T19:13:44.561Z,98543.66
2022-08-16T19:16:42.913Z,98546.56
2022-08-16T19:19:17.171Z,98540.32
2022-08-16T19:22:11.498Z,98546.36
2022-08-16T19:24:40.677Z,98546.18
2022-08-16T19:27:14.075Z,98546.09
2022-08-16T19:29:42.480Z,98547.16
2022-08-16T19:32:18.581Z,98553.32
2022-08-16T19:34:48.527Z,98552.35
2022-08-16T19:37:16.796Z,98555.63
2022-08-16T19:39:55.514Z,98555.57
2022-08-16T19:42:26.413Z,98552.98
2022-08-16T19:44:57.819Z,98553.85
2022-08-16T19:47:27.197Z,98554.66
2022-08-16T19:49:58.222Z,98556.97
2022-08-16T19:52:34.436Z,98556.94
2022-08-16T19:55:07.703Z,98556.73
2022-08-16T19:57:35.997Z,98555.29
2022-08-16T20:00:15.773Z,98558.93
2022-08-16T20:02:52.487Z,98563.12
2022-08-16T20:05:28.310Z,98557.57
2022-08-16T20:08:04.454Z,98556.23
2022-08-16T20:10:59.317Z,98560.30
2022-08-16T20:13:28.514Z,98562.95
2022-08-16T20:18:39.046Z,98567.52
2022-08-16T20:21:08.756Z,98564.43
2022-08-16T20:23:39.523Z,98565.52
2022-08-16T20:26:07.801Z,98566.94
2022-08-16T20:28:52.075Z,98572.16
2022-08-16T20:31:36.654Z,98569.96
2022-08-16T20:34:05.043Z,98565.63
2022-08-16T20:36:40.206Z,98567.17
2022-08-16T20:39:13.475Z,98567.91
2022-08-16T20:41:45.146Z,98569.73
2022-08-16T20:44:15.537Z,98573.48
2022-08-16T20:46:50.716Z,98575.75
2022-08-16T20:49:20.399Z,98570.55
2022-08-16T20:51:54.693Z,98571.21
2022-08-16T20:54:25.911Z,98568.52
2022-08-16T20:56:54.505Z,98572.92
2022-08-16T20:59:22.953Z,98574.85
2022-08-16T21:01:51.129Z,98575.36
2022-08-16T21:04:35.283Z,98577.76
2022-08-16T21:07:04.971Z,98581.34
2022-08-16T21:09:37.022Z,98583.69
2022-08-16T21:12:13.678Z,98588.36
2022-08-16T21:14:47.938Z,98582.85
2022-08-16T21:17:20.211Z,98582.09
2022-08-16T21:19:49.521Z,98582.48
2022-08-16T21:22:22.608Z,98585.27
2022-08-16T21:24:56.759Z,98581.33
2022-08-16T21:27:32.890Z,98585.50
2022-08-16T21:30:07.654Z,98584.63
2022-08-16T21:32:39.560Z,98581.52
2022-08-16T21:35:16.438Z,98583.27
2022-08-16T21:38:11.374Z,98582.12
2022-08-16T21:40:35.185Z,98583.35
2022-08-16T21:43:14.990Z,98585.14
2022-08-16T21:45:47.359Z,98583.52
2022-08-16T21:48:15.983Z,98582.03
2022-08-16T21:50:45.347Z,98583.34
2022-08-16T21:53:16.763Z,98579.86
2022-08-16T21:55:56.407Z,98585.13
2022-08-16T21:58:26.243Z,98581.68
2022-08-16T22:00:57.251Z,98583.25
2022-08-16T22:03:27.481Z,98578.02
2022-08-16T22:06:12.327Z,98582.02
2022-08-16T22:08:49.740Z,98580.60
2022-08-16T22:11:24.834Z,98587.22
2022-08-16T22:13:58.341Z,98588.63
2022-08-16T22:16:31.700Z,98592.66
2022-08-16T22:19:01.385Z,98593.68
2022-08-16T22:21:30.907Z,98595.10
2022-08-16T22:23:59.629Z,98595.85
2022-08-16T22:26:31.030Z,98596.73
2022-08-16T22:29:06.715Z,98601.24
2022-08-16T22:31:37.529Z,98603.12
2022-08-16T22:34:07.872Z,98603.55
2022-08-16T22:36:36.440Z,98604.13
2022-08-16T22:39:08.308Z,98604.49
2022-08-16T22:41:39.299Z,98599.52
2022-08-16T22:44:08.650Z,98592.21
2022-08-16T22:46:37.697Z,98591.67
2022-08-16T22:49:07.483Z,98592.18
2022-08-16T22:51:37.531Z,98589.80
2022-08-16T22:54:39.308Z,98590.13
2022-08-16T22:56:55.162Z,98587.92
2022-08-16T22:59:25.287Z,98591.06
2022-08-16T23:01:53.843Z,98593.58
2022-08-16T23:04:22.475Z,98595.97
2022-08-16T23:06:51.348Z,98589.41
2022-08-16T23:09:19.493Z,98591.92
2022-08-16T23:11:53.876Z,98592.29
2022-08-16T23:14:23.866Z,98585.63
2022-08-16T23:19:38.384Z,98583.21
2022-08-16T23:22:07.464Z,98582.46
2022-08-16T23:24:37.130Z,98582.41
2022-08-16T23:27:23.681Z,98583.88
2022-08-16T23:29:52.765Z,98578.89
2022-08-16T23:32:21.105Z,98582.45
2022-08-16T23:34:50.347Z,98576.92
2022-08-16T23:37:26.264Z,98579.44
2022-08-16T23:39:54.545Z,98576.35
2022-08-16T23:42:41.830Z,98578.27
2022-08-16T23:45:12.134Z,98579.11
2022-08-16T23:47:41.113Z,98581.59
2022-08-16T23:50:09.409Z,98586.52
2022-08-16T23:52:54.740Z,98587.13
2022-08-16T23:55:32.047Z,98589.14
2022-08-16T23:57:59.914Z,98586.27
